Henderson, NV (89009)

6:39 PM PDT en Septiembre 28, 2016 (GMT -0700)
Calico Ridge | | Change Station

Alt 1775 ft 36.08 °N, 114.95 °W | Updated 31 seconds ago

Nublado
Nublado
81.7 ° F
Sensación térmica 80 ° F
N
1.1
Viento Variable Viento desde SSO
Gusts 2.5 mph

Hoy
Alta -- | Baja -- ° F
--% Posibilidad de precipitaciones
Ayer
Alta -- | Baja -- ° F
Precip. -- pul
Presión 29.92 pul
Visibilidad 10.0 Millas
Nubes Baja 11000 ft
Muy nublado 15000 ft
Muy nublado 22000 ft
Índice de calor 80 ° F
Punto de rocío 48 ° F
Humedad 31%
Precipitaciones 0.00 pul
Espesor de la nieve No disponible.
6:32 AM 6:26 PM
Creciente menguante, 4% visible
METAR KLAS 290056Z 23014KT 10SM -RA FEW110 BKN150 BKN220 28/09 A2998 RMK AO2 RAB52 SLP131 ACC VC NE VIRGA DSNT W P0000 T02780094
Presión 29.92 pul
Visibilidad 10.0 Millas
Nubes Baja 11000 ft
Muy nublado 15000 ft
Muy nublado 22000 ft
Índice de calor 80 ° F
Punto de rocío 48 ° F
Humedad 31%
Precipitaciones 0.00 pul
Espesor de la nieve No disponible.
6:32 AM 6:26 PM
Creciente menguante, 4% visible
METAR KLAS 290056Z 23014KT 10SM -RA FEW110 BKN150 BKN220 28/09 A2998 RMK AO2 RAB52 SLP131 ACC VC NE VIRGA DSNT W P0000 T02780094

10-Day Weather Forecast

Almanac

Astronomía

Sep. 28, 2016 Salida Puesta
Hora real
Crepúsculo civil
Crepúsculo náutico
Crepúsculo astronómico
Luna
Horas de luz
Horas de luz
Tomorrow will be .
, % of the Moon is Illuminated

Extremos de hoy

Máximos del estado Bajos del estado

Community

WunderPhotos

Upload Photos

1,942,390 ¡fotos cargadas!

WunderBlog® & News

Nearby

Calidad del aire

  Calidad del aire Índice AQ Contaminante
Not available.

Grosos de nieve

Estación Profundido Altura

Actividad de terremotos

Ciudad Distance Mag. Tiempo y dato
Magnitud mínima muestra es 2,5.

Temperaturas de aguas costeras

Lugar Temperatura

Stations

Estaciones meteorológicas cercanas

Ubicación de la estación Temp. Vientos helados Punto de rocío Humedad Viento Precip. Alt Actualizado Tipo
                   

Watches & Warnings

There are currently no watches in effect.